createdAt,value
2022-10-05T01:10:12.981Z,96.5
2022-10-05T01:30:12.954Z,96.2
2022-10-05T02:10:12.896Z,97.3
2022-10-05T02:30:15.631Z,97.6
2022-10-05T02:50:12.847Z,97.8
2022-10-05T04:10:12.725Z,99.1
2022-10-05T04:30:12.699Z,98.9
2022-10-05T04:50:12.684Z,96.3
2022-10-05T05:10:12.646Z,94.7
2022-10-05T05:30:12.610Z,94
2022-10-05T05:50:12.574Z,93.1
2022-10-05T06:10:12.544Z,91.5
2022-10-05T07:10:12.453Z,86.7
2022-10-05T07:50:12.389Z,82.4
2022-10-05T08:30:12.333Z,80.4
2022-10-05T09:50:12.193Z,78.5
2022-10-05T10:30:12.134Z,75.8
2022-10-05T10:50:12.095Z,74.3
2022-10-05T11:10:12.057Z,73.7
2022-10-05T11:30:12.017Z,72.6
2022-10-05T11:50:11.979Z,73.8
2022-10-05T12:10:11.972Z,72.1
2022-10-05T12:30:11.915Z,70.6
2022-10-05T12:50:11.922Z,69.6
2022-10-05T13:10:11.980Z,67.6
2022-10-05T13:30:11.859Z,66.4
2022-10-05T13:50:11.777Z,64.5
2022-10-05T14:10:11.769Z,61.9
2022-10-05T14:30:11.704Z,61.2
2022-10-05T14:50:11.674Z,59.6
2022-10-05T15:10:11.674Z,62.4
2022-10-05T15:30:11.590Z,63.8
2022-10-05T15:50:11.567Z,65.4
2022-10-05T16:10:11.527Z,67.9
2022-10-05T16:30:11.489Z,70.9
2022-10-05T16:50:11.453Z,73.2
2022-10-05T17:10:11.416Z,74
2022-10-05T17:30:11.383Z,71.1
2022-10-05T18:10:11.315Z,70.2
2022-10-05T18:30:11.272Z,70.3
2022-10-05T18:50:11.261Z,70.6
2022-10-05T19:10:11.293Z,71.8
2022-10-05T19:50:11.136Z,72.5
2022-10-05T20:10:11.105Z,72.1
2022-10-05T20:30:11.067Z,72.2
2022-10-05T20:50:11.026Z,72.7
2022-10-05T21:30:10.964Z,73.5
2022-10-05T21:50:10.925Z,74.2
2022-10-05T22:30:10.858Z,81.8
2022-10-05T23:30:10.759Z,87.9
2022-10-05T23:50:10.723Z,89.3
